| time (UTC) | temp C | wind direction | speed KPH | gust KPH | rain 1hr cm | rain 24hr cm | rain mn cm | humidity % | barometer mb |
| 20260906051556 | 22 | 276 | 1.6 | 4.8 | 0.00 | 0.10 | 0.00 | 91 | 1014.0 |
| 20260906050045 | 22 | 276 | 1.6 | 6.4 | 0.00 | 0.10 | 0.00 | 91 | 1014.1 |
| 20260906044540 | 22 | 281 | 1.6 | 6.4 | 0.00 | 0.10 | 0.00 | 91 | 1014.0 |
| 20260906043050 | 22 | 325 | 1.6 | 4.8 | 0.00 | 0.10 | 0.00 | 91 | 1014.0 |
| 20260906041550 | 22 | 335 | 1.6 | 6.4 | 0.00 | 0.10 | 0.00 | 90 | 1014.2 |
| 20260906040059 | 22 | 235 | 1.6 | 6.4 | 0.00 | 0.10 | 0.00 | 91 | 1014.3 |
| 20260906034544 | 22 | 232 | 1.6 | 6.4 | 0.00 | 0.10 | 0.10 | 92 | 1014.3 |
| 20260906033050 | 22 | 0 | 1.6 | 6.4 | 0.00 | 0.10 | 0.10 | 92 | 1014.4 |
| 20260906031546 | 22 | 0 | 0.0 | 4.8 | 0.00 | 0.10 | 0.10 | 91 | 1014.4 |
| 20260906030046 | 22 | 257 | 3.2 | 6.4 | 0.00 | 0.10 | 0.10 | 92 | 1014.3 |
| 20260906024558 | 22 | 231 | 3.2 | 6.4 | 0.00 | 0.10 | 0.10 | 91 | 1014.1 |
| 20260906023048 | 22 | 0 | 0.0 | 3.2 | 0.00 | 0.10 | 0.10 | 91 | 1013.9 |
| 20260906021547 | 22 | 0 | 1.6 | 4.8 | 0.00 | 0.10 | 0.10 | 90 | 1014.0 |
| 20260906020046 | 22 | 239 | 0.0 | 3.2 | 0.00 | 0.10 | 0.10 | 89 | 1014.0 |
| 20260906014632 | 23 | 239 | 0.0 | 3.2 | 0.00 | 0.10 | 0.10 | 89 | 1014.0 |
| 20260906013054 | 23 | 0 | 0.0 | 3.2 | 0.00 | 0.10 | 0.10 | 88 | 1013.7 |
| 20260906011546 | 23 | 0 | 0.0 | 3.2 | 0.00 | 0.10 | 0.10 | 86 | 1013.8 |
| 20260906010049 | 24 | 0 | 0.0 | 1.6 | 0.00 | 0.10 | 0.10 | 85 | 1013.5 |
| 20260906004547 | 24 | 0 | 0.0 | 1.6 | 0.00 | 0.10 | 0.10 | 83 | 1013.3 |
| 20260906003045 | 25 | 239 | 0.0 | 6.4 | 0.00 | 0.10 | 0.10 | 83 | 1013.2 |
| 20260906001545 | 25 | 247 | 1.6 | 4.8 | 0.00 | 0.10 | 0.10 | 81 | 1013.0 |
| 20260906000042 | 26 | 0 | 0.0 | 3.2 | 0.00 | 0.10 | 0.10 | 80 | 1013.0 |
| 20260905234540 | 26 | 40 | 0.0 | 4.8 | 0.00 | 0.10 | 0.10 | 78 | 1012.7 |
| 20260905233048 | 27 | 0 | 0.0 | 3.2 | 0.00 | 0.10 | 0.10 | 79 | 1012.8 |
| 20260905231545 | 27 | 40 | 0.0 | 3.2 | 0.00 | 0.10 | 0.10 | 74 | 1012.7 |
| 20260905230039 | 28 | 0 | 0.0 | 1.6 | 0.00 | 0.10 | 0.10 | 73 | 1012.6 |
| 20260905224548 | 28 | 0 | 0.0 | 8.0 | 0.00 | 0.10 | 0.10 | 71 | 1012.6 |
| 20260905223045 | 30 | 0 | 0.0 | 4.8 | 0.00 | 0.10 | 0.10 | 69 | 1012.4 |
| 20260905221604 | 30 | 5 | 1.6 | 4.8 | 0.00 | 0.10 | 0.10 | 66 | 1012.6 |
| 20260905220048 | 30 | 5 | 0.0 | 3.2 | 0.00 | 0.10 | 0.10 | 68 | 1012.6 |
| 20260905214545 | 30 | 5 | 1.6 | 4.8 | 0.00 | 0.10 | 0.10 | 69 | 1013.0 |
| 20260905213056 | 28 | 5 | 1.6 | 8.0 | 0.00 | 0.10 | 0.10 | 72 | 1013.2 |
| 20260905211549 | 28 | 0 | 1.6 | 4.8 | 0.00 | 0.10 | 0.10 | 73 | 1013.0 |
| 20260905210052 | 27 | 0 | 0.0 | 4.8 | 0.00 | 0.10 | 0.10 | 77 | 1012.9 |
| 20260905204547 | 25 | 204 | 3.2 | 6.4 | 0.00 | 0.10 | 0.10 | 82 | 1013.2 |
| 20260905203043 | 23 | 234 | 3.2 | 6.4 | 0.00 | 0.10 | 0.10 | 87 | 1013.7 |
| 20260905201604 | 23 | 0 | 0.0 | 6.4 | 0.00 | 0.10 | 0.10 | 88 | 1013.7 |
| 20260905200048 | 22 | 222 | 0.0 | 4.8 | 0.00 | 0.10 | 0.10 | 89 | 1013.7 |
| 20260905194545 | 22 | 0 | 0.0 | 4.8 | 0.00 | 0.10 | 0.10 | 90 | 1014.0 |
| 20260905193101 | 22 | 222 | 8.0 | 17.7 | 0.00 | 0.10 | 0.10 | 89 | 1013.8 |
| 20260905191547 | 22 | 214 | 4.8 | 9.7 | 0.00 | 0.10 | 0.10 | 89 | 1013.9 |
| 20260905190046 | 22 | 20 | 3.2 | 11.3 | 0.00 | 0.10 | 0.10 | 87 | 1014.0 |
| 20260905184553 | 22 | 221 | 3.2 | 12.9 | 0.10 | 0.10 | 0.10 | 84 | 1013.2 |
| 20260905183048 | 22 | 273 | 6.4 | 14.5 | 0.10 | 0.10 | 0.10 | 83 | 1013.7 |
| 20260905181604 | 23 | 224 | 4.8 | 16.1 | 0.10 | 0.10 | 0.10 | 80 | 1013.5 |
| 20260905180044 | 27 | 213 | 8.0 | 30.6 | 0.08 | 0.08 | 0.08 | 70 | 1014.7 |
| 20260905174558 | 32 | 11 | 9.7 | 20.9 | 0.00 | 0.00 | 0.00 | 59 | 1014.5 |
| 20260905173051 | 34 | 0 | 4.8 | 19.3 | 0.00 | 0.00 | 0.00 | 54 | 1014.7 |
| 20260905171546 | 34 | 351 | 3.2 | 14.5 | 0.00 | 0.00 | 0.00 | 52 | 1014.7 |
| 20260905170046 | 34 | 15 | 6.4 | 12.9 | 0.00 | 0.00 | 0.00 | 55 | 1014.8 |
| 20260905164540 | 34 | 27 | 4.8 | 12.9 | 0.00 | 0.00 | 0.00 | 55 | 1014.9 |
| 20260905163049 | 35 | 242 | 1.6 | 12.9 | 0.00 | 0.00 | 0.00 | 55 | 1015.1 |
| 20260905161559 | 35 | 313 | 0.0 | 8.0 | 0.00 | 0.00 | 0.00 | 56 | 1015.4 |
| 20260905160045 | 34 | 32 | 3.2 | 6.4 | 0.00 | 0.00 | 0.00 | 58 | 1015.5 |
| 20260905154555 | 33 | 288 | 1.6 | 14.5 | 0.00 | 0.00 | 0.00 | 58 | 1015.5 |
| 20260905153052 | 33 | 219 | 1.6 | 6.4 | 0.00 | 0.00 | 0.00 | 58 | 1015.4 |
| 20260905151559 | 33 | 161 | 3.2 | 8.0 | 0.00 | 0.00 | 0.00 | 56 | 1015.4 |
| 20260905150044 | 32 | 9 | 3.2 | 6.4 | 0.00 | 0.00 | 0.00 | 62 | 1015.3 |
| 20260905144550 | 32 | 202 | 4.8 | 6.4 | 0.00 | 0.00 | 0.00 | 63 | 1015.4 |
| 20260905143048 | 31 | 194 | 3.2 | 8.0 | 0.00 | 0.00 | 0.00 | 70 | 1015.4 |
| 20260905141546 | 30 | 206 | 8.0 | 12.9 | 0.00 | 0.00 | 0.00 | 71 | 1015.4 |
| 20260905140045 | 30 | 215 | 3.2 | 6.4 | 0.00 | 0.00 | 0.00 | 74 | 1015.4 |
| 20260905134553 | 28 | 292 | 1.6 | 6.4 | 0.00 | 0.00 | 0.00 | 78 | 1015.6 |
| 20260905133047 | 27 | 269 | 0.0 | 4.8 | 0.00 | 0.00 | 0.00 | 82 | 1015.5 |
| 20260905131547 | 26 | 211 | 0.0 | 4.8 | 0.00 | 0.00 | 0.00 | 86 | 1015.7 |
| 20260905130046 | 25 | 207 | 3.2 | 6.4 | 0.00 | 0.00 | 0.00 | 89 | 1015.6 |
| 20260905124547 | 25 | 0 | 1.6 | 6.4 | 0.00 | 0.00 | 0.00 | 94 | 1015.6 |
| 20260905123052 | 23 | 0 | 0.0 | 3.2 | 0.00 | 0.00 | 0.00 | 96 | 1015.6 |
| 20260905121545 | 23 | 235 | 0.0 | 3.2 | 0.00 | 0.00 | 0.00 | 97 | 1015.5 |
| 20260905120045 | 22 | 0 | 0.0 | 4.8 | 0.00 | 0.00 | 0.00 | 97 | 1015.4 |
| 20260905114540 | 22 | 0 | 0.0 | 3.2 | 0.00 | 0.00 | 0.00 | 97 | 1015.4 |
| 20260905113050 | 22 | 0 | 0.0 | 3.2 | 0.00 | 0.00 | 0.00 | 97 | 1015.1 |
| 20260905111601 | 22 | 0 | 1.6 | 4.8 | 0.00 | 0.00 | 0.00 | 96 | 1014.9 |
| 20260905110049 | 22 | 235 | 0.0 | 3.2 | 0.00 | 0.00 | 0.00 | 96 | 1014.6 |
| 20260905104559 | 22 | 0 | 0.0 | 4.8 | 0.00 | 0.00 | 0.00 | 96 | 1014.6 |
| 20260905103039 | 22 | 226 | 0.0 | 4.8 | 0.00 | 0.00 | 0.00 | 96 | 1014.6 |
| 20260905101551 | 22 | 226 | 0.0 | 3.2 | 0.00 | 0.00 | 0.00 | 96 | 1014.5 |
| 20260905100047 | 22 | 0 | 0.0 | 1.6 | 0.00 | 0.00 | 0.00 | 96 | 1014.5 |
| 20260905094544 | 22 | 226 | 1.6 | 6.4 | 0.00 | 0.00 | 0.00 | 96 | 1014.4 |
| 20260905093052 | 22 | 226 | 3.2 | 8.0 | 0.00 | 0.00 | 0.00 | 96 | 1014.4 |
| 20260905091605 | 22 | 226 | 3.2 | 6.4 | 0.00 | 0.00 | 0.00 | 95 | 1014.3 |
| 20260905090048 | 22 | 228 | 3.2 | 8.0 | 0.00 | 0.00 | 0.00 | 95 | 1014.3 |
| 20260905084606 | 22 | 0 | 0.0 | 1.6 | 0.00 | 0.00 | 0.00 | 94 | 1014.4 |
| 20260905083040 | 22 | 0 | 0.0 | 4.8 | 0.00 | 0.00 | 0.00 | 94 | 1014.5 |
| 20260905081548 | 22 | 0 | 0.0 | 3.2 | 0.00 | 0.00 | 0.00 | 94 | 1014.6 |
| 20260905080048 | 22 | 249 | 0.0 | 3.2 | 0.00 | 0.00 | 0.00 | 94 | 1014.8 |
| 20260905074551 | 22 | 244 | 0.0 | 4.8 | 0.00 | 0.00 | 0.00 | 94 | 1015.0 |
| 20260905073040 | 22 | 0 | 0.0 | 3.2 | 0.00 | 0.00 | 0.00 | 94 | 1015.1 |
| 20260905071548 | 22 | 0 | 0.0 | 1.6 | 0.00 | 0.00 | 0.00 | 94 | 1015.2 |
| 20260905070106 | 23 | 0 | 0.0 | 0.0 | 0.00 | 0.00 | 0.00 | 93 | 1015.4 |
| 20260905064548 | 23 | 0 | 0.0 | 0.0 | 0.00 | 0.00 | 0.00 | 93 | 1015.4 |
| 20260905063042 | 23 | 0 | 0.0 | 0.0 | 0.00 | 0.00 | 0.00 | 93 | 1015.7 |
| 20260905061604 | 23 | 0 | 0.0 | 1.6 | 0.00 | 0.00 | 0.00 | 93 | 1015.7 |
| 20260905060044 | 23 | 0 | 0.0 | 3.2 | 0.00 | 0.00 | 0.00 | 93 | 1016.1 |
| 20260905054555 | 23 | 312 | 1.6 | 3.2 | 0.00 | 0.00 | 0.00 | 93 | 1016.3 |
| 20260905053048 | 23 | 0 | 0.0 | 1.6 | 0.00 | 0.00 | 0.00 | 93 | 1016.3 |